sensor_id;sensor_type;location;lat;lon;timestamp;P1;durP1;ratioP1;P2;durP2;ratioP2
4294;SDS011;2161;53.634;10.100;2023-04-06T00:01:19;522.40;;;115.80;;
4294;SDS011;2161;53.634;10.100;2023-04-06T00:03:44;502.50;;;105.50;;
4294;SDS011;2161;53.634;10.100;2023-04-06T00:06:10;498.63;;;104.07;;
4294;SDS011;2161;53.634;10.100;2023-04-06T00:08:36;503.27;;;105.57;;
4294;SDS011;2161;53.634;10.100;2023-04-06T00:11:01;506.30;;;107.67;;
4294;SDS011;2161;53.634;10.100;2023-04-06T00:13:27;508.07;;;110.00;;
4294;SDS011;2161;53.634;10.100;2023-04-06T00:15:52;496.53;;;103.53;;
4294;SDS011;2161;53.634;10.100;2023-04-06T00:18:17;500.23;;;106.37;;
4294;SDS011;2161;53.634;10.100;2023-04-06T00:20:44;501.13;;;104.55;;
4294;SDS011;2161;53.634;10.100;2023-04-06T00:23:10;501.10;;;105.80;;
4294;SDS011;2161;53.634;10.100;2023-04-06T00:25:35;500.83;;;105.00;;
4294;SDS011;2161;53.634;10.100;2023-04-06T00:28:01;492.50;;;102.37;;
4294;SDS011;2161;53.634;10.100;2023-04-06T00:30:26;499.83;;;106.33;;
4294;SDS011;2161;53.634;10.100;2023-04-06T00:32:52;499.43;;;104.47;;
4294;SDS011;2161;53.634;10.100;2023-04-06T00:35:17;501.73;;;106.00;;
4294;SDS011;2161;53.634;10.100;2023-04-06T00:37:43;503.80;;;107.90;;
4294;SDS011;2161;53.634;10.100;2023-04-06T00:40:10;498.50;;;104.72;;
4294;SDS011;2161;53.634;10.100;2023-04-06T00:42:36;495.63;;;103.27;;
4294;SDS011;2161;53.634;10.100;2023-04-06T00:45:01;497.27;;;103.20;;
4294;SDS011;2161;53.634;10.100;2023-04-06T00:47:27;503.17;;;107.17;;
4294;SDS011;2161;53.634;10.100;2023-04-06T00:49:53;494.30;;;103.85;;
4294;SDS011;2161;53.634;10.100;2023-04-06T00:52:19;500.00;;;106.57;;
4294;SDS011;2161;53.634;10.100;2023-04-06T00:54:45;495.13;;;104.40;;
4294;SDS011;2161;53.634;10.100;2023-04-06T00:57:11;495.30;;;103.60;;
4294;SDS011;2161;53.634;10.100;2023-04-06T00:59:38;498.55;;;104.55;;
4294;SDS011;2161;53.634;10.100;2023-04-06T01:02:04;497.70;;;104.78;;
4294;SDS011;2161;53.634;10.100;2023-04-06T01:04:30;496.80;;;105.27;;
4294;SDS011;2161;53.634;10.100;2023-04-06T01:06:56;497.15;;;105.00;;
4294;SDS011;2161;53.634;10.100;2023-04-06T01:09:21;497.17;;;105.40;;
4294;SDS011;2161;53.634;10.100;2023-04-06T01:11:47;499.40;;;107.40;;
4294;SDS011;2161;53.634;10.100;2023-04-06T01:14:12;498.33;;;105.37;;
4294;SDS011;2161;53.634;10.100;2023-04-06T01:16:38;504.50;;;108.27;;
4294;SDS011;2161;53.634;10.100;2023-04-06T01:19:10;490.43;;;102.80;;
4294;SDS011;2161;53.634;10.100;2023-04-06T01:21:37;492.75;;;103.20;;
4294;SDS011;2161;53.634;10.100;2023-04-06T01:24:03;499.83;;;106.80;;
4294;SDS011;2161;53.634;10.100;2023-04-06T01:26:29;511.33;;;112.45;;
4294;SDS011;2161;53.634;10.100;2023-04-06T01:28:55;491.63;;;103.47;;
4294;SDS011;2161;53.634;10.100;2023-04-06T01:31:21;501.00;;;109.30;;
4294;SDS011;2161;53.634;10.100;2023-04-06T01:33:47;491.53;;;103.50;;
4294;SDS011;2161;53.634;10.100;2023-04-06T01:36:12;497.73;;;106.97;;
4294;SDS011;2161;53.634;10.100;2023-04-06T01:38:39;503.92;;;108.38;;
4294;SDS011;2161;53.634;10.100;2023-04-06T01:41:04;502.30;;;109.33;;
4294;SDS011;2161;53.634;10.100;2023-04-06T01:43:30;500.77;;;108.87;;
4294;SDS011;2161;53.634;10.100;2023-04-06T01:45:55;490.50;;;103.90;;
4294;SDS011;2161;53.634;10.100;2023-04-06T01:48:21;495.00;;;106.77;;
4294;SDS011;2161;53.634;10.100;2023-04-06T01:50:46;497.37;;;105.73;;
4294;SDS011;2161;53.634;10.100;2023-04-06T01:53:12;491.63;;;103.23;;
4294;SDS011;2161;53.634;10.100;2023-04-06T01:55:37;490.73;;;102.67;;
4294;SDS011;2161;53.634;10.100;2023-04-06T01:58:03;486.33;;;101.57;;
4294;SDS011;2161;53.634;10.100;2023-04-06T02:00:28;514.83;;;115.67;;
4294;SDS011;2161;53.634;10.100;2023-04-06T02:02:53;499.20;;;107.37;;
4294;SDS011;2161;53.634;10.100;2023-04-06T02:05:19;496.60;;;108.37;;
4294;SDS011;2161;53.634;10.100;2023-04-06T02:07:45;511.23;;;114.83;;
4294;SDS011;2161;53.634;10.100;2023-04-06T02:10:14;496.17;;;105.50;;
4294;SDS011;2161;53.634;10.100;2023-04-06T02:12:40;496.05;;;105.70;;
4294;SDS011;2161;53.634;10.100;2023-04-06T02:15:05;505.83;;;114.37;;
4294;SDS011;2161;53.634;10.100;2023-04-06T02:17:31;497.83;;;106.83;;
4294;SDS011;2161;53.634;10.100;2023-04-06T02:19:57;494.77;;;105.20;;
4294;SDS011;2161;53.634;10.100;2023-04-06T02:22:22;493.73;;;105.67;;
4294;SDS011;2161;53.634;10.100;2023-04-06T02:24:48;490.37;;;104.70;;
4294;SDS011;2161;53.634;10.100;2023-04-06T02:27:14;494.40;;;104.97;;
4294;SDS011;2161;53.634;10.100;2023-04-06T02:29:40;488.13;;;102.30;;
4294;SDS011;2161;53.634;10.100;2023-04-06T02:32:05;486.53;;;102.27;;
4294;SDS011;2161;53.634;10.100;2023-04-06T02:34:31;490.47;;;102.97;;
4294;SDS011;2161;53.634;10.100;2023-04-06T02:36:56;489.37;;;103.70;;
4294;SDS011;2161;53.634;10.100;2023-04-06T02:39:22;490.53;;;105.70;;
4294;SDS011;2161;53.634;10.100;2023-04-06T02:41:47;499.20;;;108.00;;
4294;SDS011;2161;53.634;10.100;2023-04-06T02:44:13;488.47;;;104.27;;
4294;SDS011;2161;53.634;10.100;2023-04-06T02:46:38;489.43;;;102.87;;
4294;SDS011;2161;53.634;10.100;2023-04-06T02:49:04;489.53;;;104.77;;
4294;SDS011;2161;53.634;10.100;2023-04-06T02:51:30;489.67;;;105.07;;
4294;SDS011;2161;53.634;10.100;2023-04-06T02:53:56;489.97;;;103.17;;
4294;SDS011;2161;53.634;10.100;2023-04-06T02:56:21;498.43;;;107.63;;
4294;SDS011;2161;53.634;10.100;2023-04-06T02:58:47;494.77;;;106.03;;
4294;SDS011;2161;53.634;10.100;2023-04-06T03:01:12;483.27;;;100.90;;
4294;SDS011;2161;53.634;10.100;2023-04-06T03:03:38;488.67;;;104.73;;
4294;SDS011;2161;53.634;10.100;2023-04-06T03:06:03;486.83;;;102.10;;
4294;SDS011;2161;53.634;10.100;2023-04-06T03:08:29;496.33;;;107.07;;
4294;SDS011;2161;53.634;10.100;2023-04-06T03:10:55;487.97;;;104.20;;
4294;SDS011;2161;53.634;10.100;2023-04-06T03:13:20;502.97;;;113.77;;
4294;SDS011;2161;53.634;10.100;2023-04-06T03:15:46;485.43;;;103.47;;
4294;SDS011;2161;53.634;10.100;2023-04-06T03:18:11;481.83;;;102.07;;
4294;SDS011;2161;53.634;10.100;2023-04-06T03:20:37;485.57;;;104.13;;
4294;SDS011;2161;53.634;10.100;2023-04-06T03:23:02;493.00;;;106.87;;
4294;SDS011;2161;53.634;10.100;2023-04-06T03:25:28;486.90;;;104.87;;
4294;SDS011;2161;53.634;10.100;2023-04-06T03:27:55;486.02;;;102.50;;
4294;SDS011;2161;53.634;10.100;2023-04-06T03:30:20;491.30;;;106.47;;
4294;SDS011;2161;53.634;10.100;2023-04-06T03:32:46;490.73;;;105.60;;
4294;SDS011;2161;53.634;10.100;2023-04-06T03:35:11;482.53;;;101.37;;
4294;SDS011;2161;53.634;10.100;2023-04-06T03:37:37;482.40;;;101.90;;
4294;SDS011;2161;53.634;10.100;2023-04-06T03:40:03;484.87;;;101.93;;
4294;SDS011;2161;53.634;10.100;2023-04-06T03:42:29;483.48;;;103.70;;
4294;SDS011;2161;53.634;10.100;2023-04-06T03:44:55;488.73;;;104.33;;
4294;SDS011;2161;53.634;10.100;2023-04-06T03:47:21;492.27;;;108.20;;
4294;SDS011;2161;53.634;10.100;2023-04-06T03:49:46;488.33;;;108.43;;
4294;SDS011;2161;53.634;10.100;2023-04-06T03:52:12;484.60;;;103.03;;
4294;SDS011;2161;53.634;10.100;2023-04-06T03:54:37;475.47;;;99.87;;
4294;SDS011;2161;53.634;10.100;2023-04-06T03:57:03;484.70;;;103.67;;
4294;SDS011;2161;53.634;10.100;2023-04-06T03:59:29;487.10;;;105.32;;
4294;SDS011;2161;53.634;10.100;2023-04-06T04:01:54;489.63;;;105.30;;
4294;SDS011;2161;53.634;10.100;2023-04-06T04:04:20;495.57;;;108.83;;
4294;SDS011;2161;53.634;10.100;2023-04-06T04:06:46;481.63;;;102.17;;
4294;SDS011;2161;53.634;10.100;2023-04-06T04:09:11;486.53;;;104.00;;
4294;SDS011;2161;53.634;10.100;2023-04-06T04:11:37;481.07;;;103.00;;
4294;SDS011;2161;53.634;10.100;2023-04-06T04:14:02;490.03;;;105.10;;
4294;SDS011;2161;53.634;10.100;2023-04-06T04:16:28;484.77;;;103.13;;
4294;SDS011;2161;53.634;10.100;2023-04-06T04:18:54;483.63;;;103.67;;
4294;SDS011;2161;53.634;10.100;2023-04-06T04:21:19;485.07;;;104.47;;
4294;SDS011;2161;53.634;10.100;2023-04-06T04:23:45;475.50;;;100.53;;
4294;SDS011;2161;53.634;10.100;2023-04-06T04:26:11;481.77;;;103.07;;
4294;SDS011;2161;53.634;10.100;2023-04-06T04:28:36;485.63;;;103.73;;
4294;SDS011;2161;53.634;10.100;2023-04-06T04:31:02;480.57;;;101.57;;
4294;SDS011;2161;53.634;10.100;2023-04-06T04:33:27;495.83;;;110.20;;
4294;SDS011;2161;53.634;10.100;2023-04-06T04:35:52;480.17;;;103.43;;
4294;SDS011;2161;53.634;10.100;2023-04-06T04:38:18;482.13;;;104.30;;
4294;SDS011;2161;53.634;10.100;2023-04-06T04:40:44;477.15;;;101.53;;
4294;SDS011;2161;53.634;10.100;2023-04-06T04:43:10;490.67;;;106.90;;
4294;SDS011;2161;53.634;10.100;2023-04-06T04:45:35;490.10;;;108.00;;
4294;SDS011;2161;53.634;10.100;2023-04-06T04:48:01;480.27;;;103.50;;
4294;SDS011;2161;53.634;10.100;2023-04-06T04:50:26;492.27;;;107.77;;
4294;SDS011;2161;53.634;10.100;2023-04-06T04:52:52;490.07;;;107.43;;
4294;SDS011;2161;53.634;10.100;2023-04-06T04:55:17;493.17;;;109.30;;
4294;SDS011;2161;53.634;10.100;2023-04-06T04:57:43;485.57;;;103.93;;
4294;SDS011;2161;53.634;10.100;2023-04-06T05:00:08;482.10;;;101.97;;
4294;SDS011;2161;53.634;10.100;2023-04-06T05:02:34;480.25;;;103.07;;
4294;SDS011;2161;53.634;10.100;2023-04-06T05:05:00;488.77;;;105.77;;
4294;SDS011;2161;53.634;10.100;2023-04-06T05:07:26;499.20;;;113.83;;
4294;SDS011;2161;53.634;10.100;2023-04-06T05:09:51;485.57;;;104.30;;
4294;SDS011;2161;53.634;10.100;2023-04-06T05:12:18;479.77;;;102.87;;
4294;SDS011;2161;53.634;10.100;2023-04-06T05:14:44;484.42;;;103.45;;
4294;SDS011;2161;53.634;10.100;2023-04-06T05:17:10;479.37;;;101.87;;
4294;SDS011;2161;53.634;10.100;2023-04-06T05:19:36;482.80;;;102.73;;
4294;SDS011;2161;53.634;10.100;2023-04-06T05:22:01;490.17;;;107.07;;
4294;SDS011;2161;53.634;10.100;2023-04-06T05:24:27;500.90;;;112.70;;
4294;SDS011;2161;53.634;10.100;2023-04-06T05:26:52;502.50;;;113.43;;
4294;SDS011;2161;53.634;10.100;2023-04-06T05:29:18;484.10;;;103.83;;
4294;SDS011;2161;53.634;10.100;2023-04-06T05:31:45;488.23;;;105.90;;
4294;SDS011;2161;53.634;10.100;2023-04-06T05:34:10;484.93;;;104.80;;
4294;SDS011;2161;53.634;10.100;2023-04-06T05:36:37;480.65;;;102.18;;
4294;SDS011;2161;53.634;10.100;2023-04-06T05:39:03;499.73;;;112.63;;
4294;SDS011;2161;53.634;10.100;2023-04-06T05:41:28;478.67;;;103.37;;
4294;SDS011;2161;53.634;10.100;2023-04-06T05:43:54;484.67;;;103.70;;
4294;SDS011;2161;53.634;10.100;2023-04-06T05:46:20;481.93;;;102.67;;
4294;SDS011;2161;53.634;10.100;2023-04-06T05:48:45;473.63;;;101.20;;
4294;SDS011;2161;53.634;10.100;2023-04-06T05:51:11;479.63;;;101.60;;
4294;SDS011;2161;53.634;10.100;2023-04-06T05:53:36;478.47;;;100.33;;
4294;SDS011;2161;53.634;10.100;2023-04-06T05:56:02;477.53;;;100.90;;
4294;SDS011;2161;53.634;10.100;2023-04-06T05:58:28;483.55;;;102.53;;
4294;SDS011;2161;53.634;10.100;2023-04-06T06:01:00;484.53;;;103.40;;
4294;SDS011;2161;53.634;10.100;2023-04-06T06:03:27;483.77;;;104.35;;
4294;SDS011;2161;53.634;10.100;2023-04-06T06:05:53;477.33;;;101.77;;
4294;SDS011;2161;53.634;10.100;2023-04-06T06:08:19;480.20;;;101.40;;
4294;SDS011;2161;53.634;10.100;2023-04-06T06:10:44;491.93;;;106.90;;
4294;SDS011;2161;53.634;10.100;2023-04-06T06:13:10;481.53;;;101.50;;
4294;SDS011;2161;53.634;10.100;2023-04-06T06:15:35;488.30;;;104.40;;
4294;SDS011;2161;53.634;10.100;2023-04-06T06:18:01;485.90;;;103.00;;
4294;SDS011;2161;53.634;10.100;2023-04-06T06:20:26;486.63;;;105.17;;
4294;SDS011;2161;53.634;10.100;2023-04-06T06:22:52;491.97;;;105.57;;
4294;SDS011;2161;53.634;10.100;2023-04-06T06:25:18;486.07;;;103.73;;
4294;SDS011;2161;53.634;10.100;2023-04-06T06:27:43;496.07;;;107.53;;
4294;SDS011;2161;53.634;10.100;2023-04-06T06:30:09;491.47;;;104.27;;
4294;SDS011;2161;53.634;10.100;2023-04-06T06:32:35;487.87;;;104.30;;
4294;SDS011;2161;53.634;10.100;2023-04-06T06:35:00;490.00;;;102.70;;
4294;SDS011;2161;53.634;10.100;2023-04-06T06:37:26;489.17;;;104.27;;
4294;SDS011;2161;53.634;10.100;2023-04-06T06:39:51;491.70;;;103.07;;
4294;SDS011;2161;53.634;10.100;2023-04-06T06:42:17;494.87;;;104.37;;
4294;SDS011;2161;53.634;10.100;2023-04-06T06:44:42;493.63;;;103.70;;
4294;SDS011;2161;53.634;10.100;2023-04-06T06:47:08;490.93;;;103.40;;
4294;SDS011;2161;53.634;10.100;2023-04-06T06:49:33;490.13;;;103.00;;
4294;SDS011;2161;53.634;10.100;2023-04-06T06:51:59;496.70;;;104.53;;
4294;SDS011;2161;53.634;10.100;2023-04-06T06:54:24;502.60;;;107.30;;
4294;SDS011;2161;53.634;10.100;2023-04-06T06:56:50;494.03;;;103.50;;
4294;SDS011;2161;53.634;10.100;2023-04-06T06:59:15;501.93;;;105.60;;
4294;SDS011;2161;53.634;10.100;2023-04-06T07:01:41;495.93;;;104.40;;
4294;SDS011;2161;53.634;10.100;2023-04-06T07:04:07;498.10;;;104.00;;
4294;SDS011;2161;53.634;10.100;2023-04-06T07:06:34;499.38;;;104.57;;
4294;SDS011;2161;53.634;10.100;2023-04-06T07:09:00;499.80;;;103.05;;
4294;SDS011;2161;53.634;10.100;2023-04-06T07:11:27;503.67;;;106.72;;
4294;SDS011;2161;53.634;10.100;2023-04-06T07:13:53;503.97;;;107.17;;
4294;SDS011;2161;53.634;10.100;2023-04-06T07:16:19;505.23;;;105.40;;
4294;SDS011;2161;53.634;10.100;2023-04-06T07:18:45;499.20;;;103.87;;
4294;SDS011;2161;53.634;10.100;2023-04-06T07:21:10;503.43;;;105.00;;
4294;SDS011;2161;53.634;10.100;2023-04-06T07:23:36;509.13;;;106.97;;
4294;SDS011;2161;53.634;10.100;2023-04-06T07:26:01;506.93;;;105.27;;
4294;SDS011;2161;53.634;10.100;2023-04-06T07:28:27;512.03;;;106.80;;
4294;SDS011;2161;53.634;10.100;2023-04-06T07:30:52;506.23;;;104.90;;
4294;SDS011;2161;53.634;10.100;2023-04-06T07:33:19;514.53;;;108.80;;
4294;SDS011;2161;53.634;10.100;2023-04-06T07:35:45;509.90;;;106.60;;
4294;SDS011;2161;53.634;10.100;2023-04-06T07:38:10;518.33;;;111.27;;
4294;SDS011;2161;53.634;10.100;2023-04-06T07:40:36;522.10;;;112.80;;
4294;SDS011;2161;53.634;10.100;2023-04-06T07:43:02;507.63;;;104.60;;
4294;SDS011;2161;53.634;10.100;2023-04-06T07:45:27;517.00;;;107.57;;
4294;SDS011;2161;53.634;10.100;2023-04-06T07:47:53;513.10;;;105.27;;
4294;SDS011;2161;53.634;10.100;2023-04-06T07:50:19;515.57;;;107.07;;
4294;SDS011;2161;53.634;10.100;2023-04-06T07:52:44;513.50;;;107.20;;
4294;SDS011;2161;53.634;10.100;2023-04-06T07:55:10;519.23;;;106.93;;
4294;SDS011;2161;53.634;10.100;2023-04-06T07:57:36;532.17;;;114.57;;
4294;SDS011;2161;53.634;10.100;2023-04-06T08:00:01;520.83;;;107.77;;
4294;SDS011;2161;53.634;10.100;2023-04-06T08:02:28;521.65;;;108.38;;
4294;SDS011;2161;53.634;10.100;2023-04-06T08:04:54;518.25;;;107.63;;
4294;SDS011;2161;53.634;10.100;2023-04-06T08:07:20;524.17;;;108.17;;
4294;SDS011;2161;53.634;10.100;2023-04-06T08:09:45;522.77;;;107.80;;
4294;SDS011;2161;53.634;10.100;2023-04-06T08:12:11;521.93;;;107.90;;
4294;SDS011;2161;53.634;10.100;2023-04-06T08:14:36;527.07;;;109.93;;
4294;SDS011;2161;53.634;10.100;2023-04-06T08:17:02;523.53;;;107.80;;
4294;SDS011;2161;53.634;10.100;2023-04-06T08:19:27;532.20;;;111.07;;
4294;SDS011;2161;53.634;10.100;2023-04-06T08:21:53;546.27;;;119.27;;
4294;SDS011;2161;53.634;10.100;2023-04-06T08:24:18;528.77;;;108.17;;
4294;SDS011;2161;53.634;10.100;2023-04-06T08:26:44;525.73;;;108.70;;
4294;SDS011;2161;53.634;10.100;2023-04-06T08:29:09;527.50;;;108.90;;
4294;SDS011;2161;53.634;10.100;2023-04-06T08:31:35;556.03;;;121.53;;
4294;SDS011;2161;53.634;10.100;2023-04-06T08:34:03;535.15;;;109.95;;
4294;SDS011;2161;53.634;10.100;2023-04-06T08:36:30;543.53;;;116.25;;
4294;SDS011;2161;53.634;10.100;2023-04-06T08:38:55;537.73;;;109.37;;
4294;SDS011;2161;53.634;10.100;2023-04-06T08:41:21;537.20;;;109.23;;
4294;SDS011;2161;53.634;10.100;2023-04-06T08:43:47;551.03;;;117.07;;
4294;SDS011;2161;53.634;10.100;2023-04-06T08:46:15;548.85;;;111.82;;
4294;SDS011;2161;53.634;10.100;2023-04-06T08:48:41;546.83;;;110.70;;
4294;SDS011;2161;53.634;10.100;2023-04-06T08:51:08;548.60;;;111.45;;
4294;SDS011;2161;53.634;10.100;2023-04-06T08:53:34;551.72;;;111.70;;
4294;SDS011;2161;53.634;10.100;2023-04-06T08:56:00;554.13;;;112.77;;
4294;SDS011;2161;53.634;10.100;2023-04-06T08:58:28;550.65;;;112.68;;
4294;SDS011;2161;53.634;10.100;2023-04-06T09:00:55;551.60;;;110.90;;
4294;SDS011;2161;53.634;10.100;2023-04-06T09:03:21;554.40;;;120.37;;
4294;SDS011;2161;53.634;10.100;2023-04-06T09:05:47;551.00;;;115.13;;
4294;SDS011;2161;53.634;10.100;2023-04-06T09:08:13;550.97;;;114.07;;
4294;SDS011;2161;53.634;10.100;2023-04-06T09:10:42;549.97;;;113.60;;
4294;SDS011;2161;53.634;10.100;2023-04-06T09:13:08;550.70;;;112.32;;
4294;SDS011;2161;53.634;10.100;2023-04-06T09:15:34;549.97;;;113.45;;
4294;SDS011;2161;53.634;10.100;2023-04-06T09:18:00;552.65;;;112.90;;
4294;SDS011;2161;53.634;10.100;2023-04-06T09:20:26;553.73;;;112.63;;
4294;SDS011;2161;53.634;10.100;2023-04-06T09:22:53;566.30;;;119.55;;
4294;SDS011;2161;53.634;10.100;2023-04-06T09:25:20;556.45;;;113.43;;
4294;SDS011;2161;53.634;10.100;2023-04-06T09:27:48;554.47;;;112.07;;
4294;SDS011;2161;53.634;10.100;2023-04-06T09:30:22;574.30;;;116.30;;
4294;SDS011;2161;53.634;10.100;2023-04-06T09:32:50;600.40;;;118.67;;
4294;SDS011;2161;53.634;10.100;2023-04-06T09:35:17;610.03;;;117.80;;
4294;SDS011;2161;53.634;10.100;2023-04-06T09:37:45;621.00;;;125.77;;
4294;SDS011;2161;53.634;10.100;2023-04-06T09:40:12;631.33;;;128.37;;
4294;SDS011;2161;53.634;10.100;2023-04-06T09:42:41;629.70;;;128.40;;
4294;SDS011;2161;53.634;10.100;2023-04-06T09:45:07;634.00;;;135.50;;
4294;SDS011;2161;53.634;10.100;2023-04-06T09:47:35;648.93;;;140.50;;
4294;SDS011;2161;53.634;10.100;2023-04-06T09:50:02;640.50;;;136.90;;
4294;SDS011;2161;53.634;10.100;2023-04-06T09:52:32;642.53;;;136.83;;
4294;SDS011;2161;53.634;10.100;2023-04-06T09:55:02;640.63;;;133.63;;
4294;SDS011;2161;53.634;10.100;2023-04-06T09:57:32;641.77;;;134.90;;
4294;SDS011;2161;53.634;10.100;2023-04-06T10:00:03;649.03;;;144.43;;
4294;SDS011;2161;53.634;10.100;2023-04-06T10:02:50;642.43;;;136.53;;
4294;SDS011;2161;53.634;10.100;2023-04-06T10:06:25;635.90;;;132.90;;
4294;SDS011;2161;53.634;10.100;2023-04-06T10:08:25;633.70;;;132.17;;
4294;SDS011;2161;53.634;10.100;2023-04-06T10:10:53;635.63;;;133.13;;
4294;SDS011;2161;53.634;10.100;2023-04-06T10:13:20;642.63;;;141.53;;
4294;SDS011;2161;53.634;10.100;2023-04-06T10:15:46;634.17;;;132.63;;
4294;SDS011;2161;53.634;10.100;2023-04-06T10:18:13;635.07;;;131.50;;
4294;SDS011;2161;53.634;10.100;2023-04-06T10:20:43;637.80;;;134.73;;
4294;SDS011;2161;53.634;10.100;2023-04-06T10:23:38;643.23;;;133.57;;
4294;SDS011;2161;53.634;10.100;2023-04-06T10:26:19;627.77;;;131.37;;
4294;SDS011;2161;53.634;10.100;2023-04-06T10:28:46;621.10;;;129.53;;
4294;SDS011;2161;53.634;10.100;2023-04-06T10:31:13;618.83;;;128.50;;
4294;SDS011;2161;53.634;10.100;2023-04-06T10:33:39;614.07;;;126.17;;
4294;SDS011;2161;53.634;10.100;2023-04-06T10:36:09;603.90;;;124.47;;
4294;SDS011;2161;53.634;10.100;2023-04-06T10:38:35;600.57;;;123.20;;
4294;SDS011;2161;53.634;10.100;2023-04-06T10:41:05;596.60;;;121.27;;
4294;SDS011;2161;53.634;10.100;2023-04-06T10:43:36;602.20;;;124.07;;
4294;SDS011;2161;53.634;10.100;2023-04-06T10:46:03;599.47;;;122.27;;
4294;SDS011;2161;53.634;10.100;2023-04-06T10:48:37;592.93;;;121.70;;
4294;SDS011;2161;53.634;10.100;2023-04-06T10:51:07;595.20;;;122.60;;
4294;SDS011;2161;53.634;10.100;2023-04-06T10:53:43;594.57;;;123.03;;
4294;SDS011;2161;53.634;10.100;2023-04-06T10:56:11;594.00;;;124.07;;
4294;SDS011;2161;53.634;10.100;2023-04-06T10:58:38;607.40;;;130.63;;
4294;SDS011;2161;53.634;10.100;2023-04-06T11:01:10;595.70;;;124.00;;
4294;SDS011;2161;53.634;10.100;2023-04-06T11:03:46;597.80;;;124.80;;
4294;SDS011;2161;53.634;10.100;2023-04-06T11:06:19;593.37;;;121.93;;
4294;SDS011;2161;53.634;10.100;2023-04-06T11:08:49;589.43;;;120.27;;
4294;SDS011;2161;53.634;10.100;2023-04-06T11:11:16;598.67;;;122.73;;
4294;SDS011;2161;53.634;10.100;2023-04-06T11:16:12;595.80;;;122.13;;
4294;SDS011;2161;53.634;10.100;2023-04-06T11:18:38;595.37;;;125.33;;
4294;SDS011;2161;53.634;10.100;2023-04-06T11:21:11;593.53;;;122.33;;
4294;SDS011;2161;53.634;10.100;2023-04-06T11:23:37;603.53;;;128.73;;
4294;SDS011;2161;53.634;10.100;2023-04-06T11:26:02;593.70;;;125.20;;
4294;SDS011;2161;53.634;10.100;2023-04-06T11:28:28;596.33;;;126.27;;
4294;SDS011;2161;53.634;10.100;2023-04-06T11:30:53;594.20;;;123.17;;
4294;SDS011;2161;53.634;10.100;2023-04-06T11:33:22;607.10;;;128.63;;
4294;SDS011;2161;53.634;10.100;2023-04-06T11:35:48;596.60;;;124.47;;
4294;SDS011;2161;53.634;10.100;2023-04-06T11:38:13;603.83;;;128.43;;
4294;SDS011;2161;53.634;10.100;2023-04-06T11:40:39;597.10;;;126.20;;
4294;SDS011;2161;53.634;10.100;2023-04-06T11:43:05;597.77;;;124.07;;
4294;SDS011;2161;53.634;10.100;2023-04-06T11:45:44;600.93;;;124.87;;
4294;SDS011;2161;53.634;10.100;2023-04-06T11:48:19;595.37;;;123.60;;
4294;SDS011;2161;53.634;10.100;2023-04-06T11:50:48;598.17;;;124.97;;
4294;SDS011;2161;53.634;10.100;2023-04-06T11:53:20;611.23;;;132.97;;
4294;SDS011;2161;53.634;10.100;2023-04-06T11:55:45;601.30;;;125.07;;
4294;SDS011;2161;53.634;10.100;2023-04-06T11:58:12;606.17;;;127.97;;
4294;SDS011;2161;53.634;10.100;2023-04-06T12:00:37;613.10;;;132.23;;
4294;SDS011;2161;53.634;10.100;2023-04-06T12:03:03;608.03;;;126.87;;
4294;SDS011;2161;53.634;10.100;2023-04-06T12:05:28;611.27;;;130.27;;
4294;SDS011;2161;53.634;10.100;2023-04-06T12:07:54;606.50;;;127.73;;
4294;SDS011;2161;53.634;10.100;2023-04-06T12:10:19;602.30;;;124.83;;
4294;SDS011;2161;53.634;10.100;2023-04-06T12:12:45;603.30;;;125.33;;
4294;SDS011;2161;53.634;10.100;2023-04-06T12:15:11;603.07;;;127.17;;
4294;SDS011;2161;53.634;10.100;2023-04-06T12:17:36;612.17;;;130.03;;
4294;SDS011;2161;53.634;10.100;2023-04-06T12:20:02;606.23;;;126.73;;
4294;SDS011;2161;53.634;10.100;2023-04-06T12:22:28;628.43;;;141.57;;
4294;SDS011;2161;53.634;10.100;2023-04-06T12:24:53;610.30;;;127.37;;
4294;SDS011;2161;53.634;10.100;2023-04-06T12:27:19;612.73;;;133.07;;
4294;SDS011;2161;53.634;10.100;2023-04-06T12:29:44;618.87;;;134.07;;
4294;SDS011;2161;53.634;10.100;2023-04-06T12:32:10;612.33;;;129.60;;
4294;SDS011;2161;53.634;10.100;2023-04-06T12:34:37;618.77;;;137.83;;
4294;SDS011;2161;53.634;10.100;2023-04-06T12:37:03;627.13;;;135.77;;
4294;SDS011;2161;53.634;10.100;2023-04-06T12:39:28;612.03;;;130.47;;
4294;SDS011;2161;53.634;10.100;2023-04-06T12:41:55;614.63;;;133.83;;
4294;SDS011;2161;53.634;10.100;2023-04-06T12:44:21;622.53;;;139.27;;
4294;SDS011;2161;53.634;10.100;2023-04-06T12:46:46;613.67;;;133.53;;
4294;SDS011;2161;53.634;10.100;2023-04-06T12:49:12;616.70;;;133.93;;
4294;SDS011;2161;53.634;10.100;2023-04-06T12:51:37;621.63;;;137.03;;
4294;SDS011;2161;53.634;10.100;2023-04-06T12:54:03;614.57;;;129.53;;
4294;SDS011;2161;53.634;10.100;2023-04-06T12:56:28;618.13;;;130.00;;
4294;SDS011;2161;53.634;10.100;2023-04-06T12:58:54;614.33;;;134.23;;
4294;SDS011;2161;53.634;10.100;2023-04-06T13:01:20;613.70;;;130.00;;
4294;SDS011;2161;53.634;10.100;2023-04-06T13:03:46;611.70;;;126.87;;
4294;SDS011;2161;53.634;10.100;2023-04-06T13:06:11;614.27;;;128.33;;
4294;SDS011;2161;53.634;10.100;2023-04-06T13:08:38;620.97;;;133.47;;
4294;SDS011;2161;53.634;10.100;2023-04-06T13:11:04;617.78;;;131.18;;
4294;SDS011;2161;53.634;10.100;2023-04-06T13:13:32;620.90;;;131.57;;
4294;SDS011;2161;53.634;10.100;2023-04-06T13:16:02;617.90;;;135.47;;
4294;SDS011;2161;53.634;10.100;2023-04-06T13:18:30;618.80;;;133.83;;
4294;SDS011;2161;53.634;10.100;2023-04-06T13:20:56;619.93;;;131.80;;
4294;SDS011;2161;53.634;10.100;2023-04-06T13:23:22;629.73;;;137.67;;
4294;SDS011;2161;53.634;10.100;2023-04-06T13:25:56;618.13;;;134.83;;
4294;SDS011;2161;53.634;10.100;2023-04-06T13:28:23;618.73;;;133.20;;
4294;SDS011;2161;53.634;10.100;2023-04-06T13:30:49;615.57;;;129.10;;
4294;SDS011;2161;53.634;10.100;2023-04-06T13:33:14;622.77;;;131.70;;
4294;SDS011;2161;53.634;10.100;2023-04-06T13:35:43;613.73;;;130.57;;
4294;SDS011;2161;53.634;10.100;2023-04-06T13:38:09;613.60;;;128.47;;
4294;SDS011;2161;53.634;10.100;2023-04-06T13:40:35;618.20;;;128.60;;
4294;SDS011;2161;53.634;10.100;2023-04-06T13:43:04;615.33;;;129.73;;
4294;SDS011;2161;53.634;10.100;2023-04-06T13:45:30;622.87;;;131.27;;
4294;SDS011;2161;53.634;10.100;2023-04-06T13:47:55;622.97;;;133.47;;
4294;SDS011;2161;53.634;10.100;2023-04-06T13:50:21;611.80;;;129.73;;
4294;SDS011;2161;53.634;10.100;2023-04-06T13:52:46;613.60;;;130.00;;
4294;SDS011;2161;53.634;10.100;2023-04-06T13:55:12;614.03;;;127.57;;
4294;SDS011;2161;53.634;10.100;2023-04-06T13:57:37;614.00;;;129.67;;
4294;SDS011;2161;53.634;10.100;2023-04-06T14:00:03;626.13;;;134.63;;
4294;SDS011;2161;53.634;10.100;2023-04-06T14:02:30;618.57;;;131.33;;
4294;SDS011;2161;53.634;10.100;2023-04-06T14:04:55;618.00;;;134.63;;
4294;SDS011;2161;53.634;10.100;2023-04-06T14:07:21;659.03;;;153.57;;